Time;durP1;ratioP1;P1;durP2;ratioP2;P2;SDS_P1;SDS_P2;PMS_P1;PMS_P2;Temp;Humidity;BMP_temperature;BMP_pressure;BME280_temperature;BME280_humidity;BME280_pressure;Samples;Min_cycle;Max_cycle;Signal;HPM_P1;HPM_P2
2021/03/19 00:00:26;;;;;;;6.33;4.80;;;4.00;51.70;;;;;;6275104;28;20489;-62
2021/03/19 00:03:29;;;;;;;5.10;4.07;;;4.10;51.60;;;;;;6269803;28;20557;-63
2021/03/19 00:06:33;;;;;;;4.97;3.83;;;4.10;51.50;;;;;;6274956;28;20489;-61
2021/03/19 00:09:36;;;;;;;5.20;4.37;;;4.10;51.60;;;;;;6274511;28;20500;-61
2021/03/19 00:12:38;;;;;;;4.30;4.00;;;4.20;51.40;;;;;;6274639;28;20490;-60
2021/03/19 00:15:41;;;;;;;4.93;3.80;;;4.20;52.20;;;;;;6278149;28;20472;-61
2021/03/19 00:18:44;;;;;;;4.50;3.80;;;4.20;51.70;;;;;;6295206;28;20560;-62
2021/03/19 00:21:47;;;;;;;4.93;3.83;;;4.20;52.20;;;;;;6295555;28;20488;-61
2021/03/19 00:24:52;;;;;;;3.57;3.30;;;4.30;53.20;;;;;;6295886;28;20489;-62
2021/03/19 00:27:55;;;;;;;4.50;3.73;;;4.40;53.30;;;;;;6281651;28;20824;-61
2021/03/19 00:30:57;;;;;;;4.10;3.70;;;4.40;52.10;;;;;;6288687;28;20588;-61
2021/03/19 00:33:59;;;;;;;3.97;3.57;;;4.40;52.00;;;;;;6285196;28;20552;-62
2021/03/19 00:37:02;;;;;;;6.07;3.53;;;4.40;51.10;;;;;;6282912;28;20464;-61
2021/03/19 00:40:08;;;;;;;5.50;4.40;;;4.40;51.10;;;;;;6281172;28;20485;-61
2021/03/19 00:43:12;;;;;;;4.90;4.43;;;4.30;51.60;;;;;;6265291;28;20473;-61
2021/03/19 00:46:14;;;;;;;4.83;4.33;;;4.30;52.20;;;;;;6258912;28;20537;-62
2021/03/19 00:49:19;;;;;;;7.90;4.60;;;4.20;52.30;;;;;;6273614;28;20446;-62
2021/03/19 00:52:22;;;;;;;5.53;4.53;;;4.10;52.30;;;;;;6286955;28;20908;-62
2021/03/19 00:55:26;;;;;;;9.47;5.60;;;4.10;52.50;;;;;;6281560;28;20915;-61
2021/03/19 00:58:29;;;;;;;8.07;5.07;;;4.00;52.80;;;;;;6253223;28;20439;-62
2021/03/19 01:01:31;;;;;;;8.30;5.33;;;3.90;52.70;;;;;;6251775;28;20562;-61
2021/03/19 01:04:34;;;;;;;10.97;6.47;;;3.70;52.90;;;;;;6255394;28;20904;-61
2021/03/19 01:07:37;;;;;;;6.60;5.47;;;3.60;53.00;;;;;;6274161;28;20474;-61
2021/03/19 01:10:42;;;;;;;7.67;6.03;;;3.60;52.90;;;;;;6269029;28;21004;-61
2021/03/19 01:13:44;;;;;;;11.87;7.93;;;3.50;53.20;;;;;;6273953;28;20541;-59
2021/03/19 01:16:47;;;;;;;12.00;7.63;;;3.50;53.20;;;;;;6257908;28;20463;-62
2021/03/19 01:19:52;;;;;;;11.07;6.57;;;3.50;53.20;;;;;;6249427;28;20482;-62
2021/03/19 01:22:55;;;;;;;12.30;7.80;;;3.50;53.30;;;;;;6259433;28;20463;-59
2021/03/19 01:25:58;;;;;;;11.03;6.87;;;3.50;53.50;;;;;;6263256;28;20822;-59
2021/03/19 01:29:00;;;;;;;7.97;6.70;;;3.40;53.60;;;;;;6276538;28;20467;-59
2021/03/19 01:32:02;;;;;;;9.67;6.03;;;3.40;53.80;;;;;;6278410;28;20470;-59
2021/03/19 01:35:06;;;;;;;9.20;6.00;;;3.30;54.50;;;;;;6260607;28;20470;-59
2021/03/19 01:38:09;;;;;;;10.40;7.00;;;3.30;54.20;;;;;;6261622;28;20810;-59
2021/03/19 01:41:12;;;;;;;7.83;6.03;;;3.30;54.60;;;;;;6249496;28;20550;-61
2021/03/19 01:44:15;;;;;;;7.83;6.00;;;3.30;54.60;;;;;;6249185;28;20569;-61
2021/03/19 01:47:54;;;;;;;8.70;5.70;;;3.30;55.30;;;;;;6249027;28;20471;-62
2021/03/19 01:51:34;;;;;;;7.13;5.13;;;3.20;54.80;;;;;;6253270;28;20471;-59
2021/03/19 01:55:18;;;;;;;8.20;5.70;;;3.10;55.20;;;;;;6253606;28;20479;-62
2021/03/19 01:59:06;;;;;;;9.67;6.20;;;3.10;55.40;;;;;;6222363;28;20467;-59
2021/03/19 02:02:46;;;;;;;7.93;6.40;;;3.00;55.50;;;;;;6242477;28;20463;-61
2021/03/19 02:06:21;;;;;;;7.10;5.27;;;3.00;55.70;;;;;;6277811;28;20466;-59
2021/03/19 02:10:00;;;;;;;8.57;5.93;;;2.80;55.70;;;;;;6248716;28;20620;-59
2021/03/19 02:13:40;;;;;;;7.00;4.70;;;2.80;56.00;;;;;;6277463;28;20545;-59
2021/03/19 02:17:19;;;;;;;5.67;4.50;;;2.70;56.30;;;;;;6277261;28;20783;-59
2021/03/19 02:20:58;;;;;;;5.30;4.90;;;2.70;56.50;;;;;;6277335;28;20545;-59
2021/03/19 02:24:38;;;;;;;5.90;4.40;;;2.60;56.70;;;;;;6277054;28;20813;-59
2021/03/19 02:28:19;;;;;;;4.97;4.20;;;2.60;56.60;;;;;;6277889;28;20455;-59
2021/03/19 02:31:54;;;;;;;5.57;4.13;;;2.50;56.50;;;;;;6277142;28;20592;-59
2021/03/19 02:35:00;;;;;;;6.20;4.30;;;2.50;56.70;;;;;;6277035;28;20482;-59
2021/03/19 02:38:03;;;;;;;6.97;4.10;;;2.40;56.90;;;;;;6277153;28;21037;-62
2021/03/19 02:41:05;;;;;;;4.57;4.10;;;2.40;57.10;;;;;;6276997;28;20462;-59
2021/03/19 02:44:08;;;;;;;5.23;4.30;;;2.40;57.40;;;;;;6277102;28;20477;-63
2021/03/19 02:47:11;;;;;;;6.13;4.10;;;2.30;57.60;;;;;;6276759;28;20988;-60
2021/03/19 02:50:14;;;;;;;5.27;4.70;;;2.30;57.90;;;;;;6276807;28;20470;-60
2021/03/19 02:53:19;;;;;;;5.17;4.30;;;2.30;58.00;;;;;;6276454;28;20478;-60
2021/03/19 02:56:22;;;;;;;4.20;3.80;;;2.20;58.00;;;;;;6276817;28;20959;-60
2021/03/19 02:59:24;;;;;;;5.73;3.83;;;2.20;58.10;;;;;;6278542;28;20794;-63
2021/03/19 03:02:27;;;;;;;4.50;4.10;;;2.00;58.40;;;;;;6276284;28;20481;-63
2021/03/19 03:05:30;;;;;;;5.17;3.60;;;2.10;58.80;;;;;;6276629;28;20482;-62
2021/03/19 03:08:35;;;;;;;4.53;3.67;;;2.00;58.80;;;;;;6276293;28;20493;-63
2021/03/19 03:11:39;;;;;;;4.70;4.20;;;2.00;59.40;;;;;;6276081;28;21010;-62
2021/03/19 03:14:42;;;;;;;5.57;4.20;;;2.00;59.40;;;;;;6262274;28;20535;-62
2021/03/19 03:17:45;;;;;;;6.70;4.80;;;2.00;59.50;;;;;;6275930;28;20481;-62
2021/03/19 03:20:51;;;;;;;5.50;4.30;;;2.00;59.60;;;;;;6276058;28;21030;-62
2021/03/19 03:23:53;;;;;;;8.27;5.03;;;2.00;59.60;;;;;;6275693;28;20485;-62
2021/03/19 03:26:57;;;;;;;6.37;4.57;;;2.00;59.60;;;;;;6275928;28;20994;-62
2021/03/19 03:29:59;;;;;;;6.97;5.87;;;2.00;59.70;;;;;;6275904;28;20589;-61
2021/03/19 03:33:03;;;;;;;8.90;8.00;;;2.00;59.70;;;;;;6275553;28;20470;-63
2021/03/19 03:36:07;;;;;;;6.73;5.40;;;1.90;59.80;;;;;;6275733;28;20982;-63
2021/03/19 03:39:12;;;;;;;4.33;3.50;;;1.90;60.00;;;;;;6275472;28;20466;-60
2021/03/19 03:42:15;;;;;;;4.13;3.53;;;1.90;59.80;;;;;;6275896;28;20481;-63
2021/03/19 03:45:17;;;;;;;5.00;3.50;;;1.90;59.60;;;;;;6275642;28;20482;-62
2021/03/19 03:48:23;;;;;;;4.27;3.23;;;1.80;59.70;;;;;;6275962;28;20474;-62
2021/03/19 03:51:28;;;;;;;5.13;3.47;;;1.70;59.80;;;;;;6275575;28;20500;-59
2021/03/19 03:54:32;;;;;;;5.67;3.90;;;1.70;60.20;;;;;;6275362;28;20479;-59
2021/03/19 03:57:35;;;;;;;4.90;3.73;;;1.60;60.50;;;;;;6275372;28;20474;-62
2021/03/19 04:00:38;;;;;;;6.20;3.40;;;1.60;60.80;;;;;;6275255;28;20821;-62
2021/03/19 04:03:42;;;;;;;6.57;4.07;;;1.60;61.00;;;;;;6275297;28;20489;-62
2021/03/19 04:06:44;;;;;;;8.63;5.40;;;1.60;61.10;;;;;;6275069;28;20549;-63
2021/03/19 04:09:47;;;;;;;6.13;3.83;;;1.60;61.00;;;;;;6275255;28;20580;-61
2021/03/19 04:12:50;;;;;;;5.57;3.73;;;1.60;60.80;;;;;;6274244;28;20482;-63
2021/03/19 04:15:52;;;;;;;4.30;3.70;;;1.60;60.50;;;;;;6274956;28;20553;-63
2021/03/19 04:18:56;;;;;;;5.43;4.00;;;1.50;60.10;;;;;;6274859;28;20827;-60
2021/03/19 04:21:58;;;;;;;3.90;3.20;;;1.60;60.10;;;;;;6274400;28;20550;-60
2021/03/19 04:25:00;;;;;;;4.37;3.60;;;1.50;60.10;;;;;;6274255;28;20482;-61
2021/03/19 04:28:05;;;;;;;3.73;3.43;;;1.40;60.20;;;;;;6274715;28;20481;-64
2021/03/19 04:31:07;;;;;;;4.10;3.80;;;1.40;60.50;;;;;;6274283;28;20497;-62
2021/03/19 04:34:10;;;;;;;3.87;3.60;;;1.30;60.20;;;;;;6274495;28;20470;-63
2021/03/19 04:37:13;;;;;;;4.87;4.20;;;1.20;60.70;;;;;;6274609;28;20458;-62
2021/03/19 04:40:16;;;;;;;6.27;3.97;;;1.10;60.70;;;;;;6274354;28;20773;-62
2021/03/19 04:43:19;;;;;;;4.40;3.63;;;1.00;62.00;;;;;;6274805;28;20824;-61
2021/03/19 04:46:21;;;;;;;3.40;3.10;;;0.90;62.10;;;;;;6274597;28;20459;-62
2021/03/19 04:49:24;;;;;;;4.03;3.60;;;0.90;62.70;;;;;;6274677;28;20783;-64
2021/03/19 04:52:27;;;;;;;3.23;2.93;;;0.90;63.20;;;;;;6278333;28;20824;-60
2021/03/19 04:55:29;;;;;;;5.30;4.80;;;1.00;63.10;;;;;;6299222;28;20456;-62
2021/03/19 04:58:31;;;;;;;3.77;3.30;;;1.00;62.80;;;;;;6299425;28;20523;-62
2021/03/19 05:01:46;;;;;;;3.50;3.00;;;1.00;62.80;;;;;;6298965;28;20548;-60
2021/03/19 05:04:50;;;;;;;4.23;3.93;;;1.00;63.30;;;;;;6299091;28;20469;-60
2021/03/19 05:07:53;;;;;;;6.53;4.37;;;1.00;63.20;;;;;;6298960;28;20799;-59
2021/03/19 05:10:55;;;;;;;8.20;3.67;;;1.10;63.30;;;;;;6299098;28;20480;-60
2021/03/19 05:13:58;;;;;;;7.30;4.90;;;1.10;63.10;;;;;;6298918;28;20492;-60
2021/03/19 05:17:02;;;;;;;6.27;4.37;;;1.10;63.10;;;;;;6299028;28;20469;-60
2021/03/19 05:20:08;;;;;;;4.33;3.70;;;1.10;63.10;;;;;;6294358;28;20465;-62
2021/03/19 05:23:18;;;;;;;4.20;3.67;;;1.10;63.50;;;;;;6300309;28;20477;-64
2021/03/19 05:26:20;;;;;;;5.87;3.90;;;1.00;64.00;;;;;;6303640;28;20461;-63
2021/03/19 05:29:22;;;;;;;4.33;3.93;;;1.00;63.80;;;;;;6303537;28;20464;-60
2021/03/19 05:32:27;;;;;;;4.13;3.83;;;1.00;63.50;;;;;;6303405;28;20465;-60
2021/03/19 05:35:30;;;;;;;5.20;4.70;;;1.10;63.90;;;;;;6303238;28;20469;-60
2021/03/19 05:38:33;;;;;;;4.97;3.70;;;1.10;63.80;;;;;;6303431;28;20469;-60
2021/03/19 05:41:39;;;;;;;3.83;3.53;;;1.20;63.60;;;;;;6303933;28;20582;-64
2021/03/19 05:44:44;;;;;;;4.60;4.20;;;1.30;63.40;;;;;;6303247;28;20469;-60
2021/03/19 05:47:47;;;;;;;5.87;4.23;;;1.30;63.10;;;;;;6303251;28;20526;-62
2021/03/19 05:50:52;;;;;;;5.17;3.93;;;1.40;63.00;;;;;;6303083;28;20480;-58
2021/03/19 05:53:58;;;;;;;4.57;4.17;;;1.40;62.70;;;;;;6302853;28;20474;-63
2021/03/19 05:57:15;;;;;;;4.37;3.90;;;1.50;62.50;;;;;;6302939;28;20466;-59
2021/03/19 06:00:20;;;;;;;4.47;3.77;;;1.60;62.40;;;;;;6302733;28;20480;-59
2021/03/19 06:03:22;;;;;;;5.57;4.07;;;1.60;62.30;;;;;;6302849;28;20480;-59
2021/03/19 06:06:46;;;;;;;5.40;4.30;;;1.70;62.40;;;;;;6303152;28;20469;-60
2021/03/19 06:09:48;;;;;;;3.57;3.27;;;1.80;62.30;;;;;;6302491;28;20564;-59
2021/03/19 06:12:53;;;;;;;5.03;3.73;;;2.00;62.00;;;;;;6303128;28;20481;-59
2021/03/19 06:16:16;;;;;;;4.93;3.70;;;2.10;62.20;;;;;;6302487;28;20499;-60
2021/03/19 06:19:29;;;;;;;8.93;3.70;;;2.20;61.00;;;;;;6303003;28;20453;-62
2021/03/19 06:22:37;;;;;;;7.23;4.03;;;2.30;60.80;;;;;;6297847;28;21251;-62
2021/03/19 06:25:41;;;;;;;3.70;3.30;;;2.40;60.60;;;;;;6302163;28;20901;-62
2021/03/19 06:28:50;;;;;;;4.30;3.90;;;2.60;60.40;;;;;;6302421;28;20471;-59
2021/03/19 06:32:13;;;;;;;8.17;5.93;;;2.70;60.10;;;;;;6302058;28;20476;-59
2021/03/19 06:35:26;;;;;;;6.87;4.40;;;2.80;59.80;;;;;;6301548;28;20477;-60
2021/03/19 06:38:33;;;;;;;6.43;4.67;;;2.90;59.70;;;;;;6301861;28;20853;-63
2021/03/19 06:41:37;;;;;;;6.43;5.13;;;3.00;59.50;;;;;;6301775;28;20598;-63
2021/03/19 06:44:41;;;;;;;5.77;5.00;;;3.00;59.60;;;;;;6301815;28;20507;-60
2021/03/19 06:47:45;;;;;;;7.10;4.70;;;3.20;59.40;;;;;;6302026;28;20541;-60
2021/03/19 06:50:47;;;;;;;7.53;5.00;;;3.30;59.20;;;;;;6302183;28;20462;-60
2021/03/19 06:53:57;;;;;;;5.10;4.60;;;3.40;58.90;;;;;;6301165;28;20473;-60
2021/03/19 06:57:06;;;;;;;6.03;5.30;;;3.60;58.90;;;;;;6301562;28;20465;-60
2021/03/19 07:00:12;;;;;;;7.10;5.40;;;3.90;58.40;;;;;;6301493;28;20480;-60
2021/03/19 07:03:36;;;;;;;5.90;4.80;;;4.10;57.80;;;;;;6301422;28;20558;-60
2021/03/19 07:06:52;;;;;;;8.93;4.90;;;4.40;57.10;;;;;;6301174;28;20477;-62
2021/03/19 07:10:08;;;;;;;5.10;4.60;;;4.90;57.10;;;;;;6301138;28;20535;-61
2021/03/19 07:13:27;;;;;;;7.10;5.13;;;7.50;53.60;;;;;;6300799;28;20484;-59
2021/03/19 07:16:39;;;;;;;9.23;5.90;;;11.00;47.00;;;;;;6301177;28;20438;-59
2021/03/19 07:19:54;;;;;;;11.40;7.50;;;13.80;39.10;;;;;;6301279;28;20462;-59
2021/03/19 07:23:05;;;;;;;7.60;5.83;;;15.20;35.40;;;;;;6297939;28;20476;-62
2021/03/19 07:26:22;;;;;;;5.77;5.20;;;16.00;32.50;;;;;;6301057;28;20476;-59
2021/03/19 07:29:39;;;;;;;9.40;6.47;;;16.70;31.10;;;;;;6291480;28;20657;-59
2021/03/19 07:33:12;;;;;;;7.23;6.53;;;17.00;31.00;;;;;;6300319;28;20468;-60
2021/03/19 07:36:35;;;;;;;9.83;7.77;;;18.50;29.50;;;;;;6290718;28;20473;-60
2021/03/19 07:40:01;;;;;;;9.60;6.90;;;19.70;27.70;;;;;;6300261;28;20793;-63
2021/03/19 07:43:32;;;;;;;8.07;7.23;;;20.90;26.50;;;;;;6300242;28;20604;-64
2021/03/19 07:46:40;;;;;;;6.83;6.13;;;21.90;25.80;;;;;;6300373;28;20247;-64
2021/03/19 07:50:07;;;;;;;7.57;6.77;;;22.70;24.40;;;;;;6300601;28;20428;-63
2021/03/19 07:53:31;;;;;;;8.57;6.23;;;20.40;23.90;;;;;;6300192;28;20231;-64
2021/03/19 07:56:52;;;;;;;7.13;6.37;;;19.70;25.50;;;;;;6300452;28;20239;-64
2021/03/19 08:00:05;;;;;;;8.90;6.50;;;19.10;25.90;;;;;;6300493;28;20227;-64
2021/03/19 08:03:13;;;;;;;6.17;5.67;;;21.10;25.40;;;;;;6300090;28;20230;-64
2021/03/19 08:06:21;;;;;;;6.90;6.07;;;22.40;24.10;;;;;;6296327;28;20570;-65
2021/03/19 08:09:35;;;;;;;8.27;6.40;;;24.10;22.20;;;;;;6286229;28;20244;-65
2021/03/19 08:12:43;;;;;;;8.60;6.50;;;24.50;21.90;;;;;;6281520;28;20219;-65
2021/03/19 08:15:51;;;;;;;7.87;7.10;;;24.90;21.60;;;;;;6285677;28;20229;-64
2021/03/19 08:19:03;;;;;;;6.70;5.50;;;25.40;21.00;;;;;;6294799;28;20224;-64
2021/03/19 08:22:16;;;;;;;6.90;5.67;;;26.40;20.00;;;;;;6286241;28;20215;-64
2021/03/19 08:25:22;;;;;;;6.00;5.40;;;27.60;19.40;;;;;;6283951;28;20758;-61
2021/03/19 08:28:36;;;;;;;8.60;5.93;;;28.50;18.30;;;;;;6280148;28;20202;-62
2021/03/19 08:31:46;;;;;;;6.90;6.30;;;28.20;18.20;;;;;;6272679;28;20231;-59
2021/03/19 08:35:01;;;;;;;5.37;4.97;;;28.40;18.50;;;;;;6274371;28;20242;-60
2021/03/19 08:38:16;;;;;;;8.07;6.43;;;29.60;17.60;;;;;;6282609;28;20241;-60
2021/03/19 08:41:26;;;;;;;6.17;5.67;;;29.90;17.00;;;;;;6284824;28;20226;-63
2021/03/19 08:44:34;;;;;;;6.10;5.60;;;29.80;17.00;;;;;;6296578;28;20226;-62
2021/03/19 08:47:44;;;;;;;8.97;5.17;;;30.70;16.70;;;;;;6273812;28;20239;-62
2021/03/19 08:50:48;;;;;;;6.67;5.30;;;30.40;16.30;;;;;;6273453;28;20579;-62
2021/03/19 08:54:29;;;;;;;7.33;5.77;;;30.30;16.40;;;;;;6282030;28;20287;-61
2021/03/19 08:57:36;;;;;;;6.97;5.50;;;31.00;15.70;;;;;;6299566;28;20276;-66
2021/03/19 09:00:50;;;;;;;5.80;4.87;;;31.30;15.50;;;;;;6290339;28;20227;-61
2021/03/19 09:03:58;;;;;;;5.93;5.50;;;31.50;15.40;;;;;;6292492;28;20220;-62
2021/03/19 09:07:21;;;;;;;4.80;4.40;;;32.20;15.60;;;;;;6280454;28;20227;-61
2021/03/19 09:10:53;;;;;;;5.35;4.85;;;33.10;14.50;;;;;;6299308;28;20656;-63
2021/03/19 09:14:15;;;;;;;5.10;4.57;;;32.30;14.60;;;;;;6277224;28;20261;-62
2021/03/19 09:17:50;;;;;;;7.13;5.07;;;32.90;14.50;;;;;;6294413;28;20231;-62
2021/03/19 09:21:04;;;;;;;4.55;3.90;;;34.20;13.90;;;;;;6303766;28;20351;-62
2021/03/19 09:24:15;;;;;;;6.30;4.53;;;34.20;13.20;;;;;;6303126;28;20251;-63
2021/03/19 09:27:31;;;;;;;4.10;3.80;;;34.60;13.20;;;;;;6303493;28;20588;-61
2021/03/19 09:30:40;;;;;;;3.95;3.58;;;34.50;12.70;;;;;;6303186;28;20241;-61
2021/03/19 09:34:29;;;;;;;3.90;3.60;;;34.20;12.80;;;;;;6292624;28;20717;-61
2021/03/19 09:37:54;;;;;;;4.33;3.93;;;29.80;13.80;;;;;;6278591;28;20539;-61
2021/03/19 09:40:59;;;;;;;4.40;4.10;;;25.30;16.30;;;;;;6278124;28;20250;-60
2021/03/19 09:44:25;;;;;;;4.23;3.83;;;24.70;17.20;;;;;;6278032;28;20234;-60
2021/03/19 09:47:32;;;;;;;5.63;3.20;;;26.40;16.50;;;;;;6302602;28;20233;-62
2021/03/19 09:50:36;;;;;;;4.90;3.87;;;29.00;15.40;;;;;;6302590;28;20241;-61
2021/03/19 09:53:39;;;;;;;3.77;3.47;;;31.30;14.10;;;;;;6302768;28;20253;-61
2021/03/19 09:56:42;;;;;;;4.18;3.80;;;34.10;13.40;;;;;;6302881;28;20237;-61
2021/03/19 09:59:45;;;;;;;3.83;3.53;;;34.30;12.70;;;;;;6296922;28;20241;-62
2021/03/19 10:02:50;;;;;;;3.93;3.30;;;30.10;13.40;;;;;;6277479;28;20297;-61
2021/03/19 10:05:52;;;;;;;3.53;3.23;;;26.40;15.10;;;;;;6277971;28;20343;-61
2021/03/19 10:09:11;;;;;;;3.87;3.53;;;23.80;16.80;;;;;;6295912;28;20361;-60
2021/03/19 10:12:17;;;;;;;6.83;3.57;;;21.20;18.20;;;;;;6302274;28;20232;-61
2021/03/19 10:15:22;;;;;;;4.00;3.70;;;19.60;19.40;;;;;;6302568;28;20234;-60
2021/03/19 10:18:28;;;;;;;4.40;3.30;;;18.30;20.50;;;;;;6302457;28;20231;-60
2021/03/19 10:21:41;;;;;;;4.30;3.10;;;16.90;21.20;;;;;;6302391;28;20474;-60
2021/03/19 10:24:44;;;;;;;3.80;3.40;;;15.90;22.20;;;;;;6301703;28;20477;-60
2021/03/19 10:27:48;;;;;;;3.90;3.60;;;15.20;22.70;;;;;;6302021;28;20974;-65
2021/03/19 10:30:54;;;;;;;4.20;3.50;;;14.60;23.50;;;;;;6301521;28;20932;-64
2021/03/19 10:34:00;;;;;;;3.77;3.43;;;14.30;23.90;;;;;;6301760;28;20974;-64
2021/03/19 10:37:31;;;;;;;4.87;3.70;;;14.20;24.40;;;;;;6301748;28;20469;-64
2021/03/19 10:40:37;;;;;;;3.17;2.97;;;14.50;24.70;;;;;;6301605;28;20907;-63
2021/03/19 10:43:49;;;;;;;4.60;4.13;;;14.30;24.60;;;;;;6301961;28;20480;-62
2021/03/19 10:46:57;;;;;;;4.33;3.50;;;14.10;24.80;;;;;;6301898;28;20458;-61
2021/03/19 10:50:06;;;;;;;3.50;3.27;;;15.00;25.20;;;;;;6301602;28;20466;-62
2021/03/19 10:53:15;;;;;;;5.70;2.83;;;16.60;23.80;;;;;;6301347;28;20465;-63
2021/03/19 10:56:19;;;;;;;2.80;2.60;;;16.80;22.80;;;;;;6301297;28;20470;-63
2021/03/19 10:59:34;;;;;;;3.07;2.83;;;16.10;23.40;;;;;;6300399;28;20813;-61
2021/03/19 11:02:36;;;;;;;3.10;2.73;;;15.30;25.30;;;;;;6298732;28;20478;-61
2021/03/19 11:05:55;;;;;;;6.83;3.67;;;14.20;27.30;;;;;;6299282;28;20473;-62
2021/03/19 11:09:16;;;;;;;3.20;2.53;;;13.50;28.70;;;;;;6298811;28;20539;-62
2021/03/19 11:12:22;;;;;;;4.77;2.87;;;12.70;30.00;;;;;;6298297;28;20485;-64
2021/03/19 11:15:37;;;;;;;4.13;2.73;;;12.10;30.60;;;;;;6299651;28;20477;-62
2021/03/19 11:18:42;;;;;;;2.93;2.73;;;11.50;31.20;;;;;;6300774;28;20476;-62
2021/03/19 11:21:52;;;;;;;3.70;2.53;;;11.40;31.70;;;;;;6300374;28;20480;-62
2021/03/19 11:25:16;;;;;;;2.80;2.60;;;11.50;31.80;;;;;;6300543;28;20492;-62
2021/03/19 11:28:35;;;;;;;5.87;2.80;;;11.70;33.10;;;;;;6300576;28;20548;-62
2021/03/19 11:31:56;;;;;;;4.40;3.20;;;12.00;31.70;;;;;;6300499;28;20476;-62
2021/03/19 11:35:14;;;;;;;3.73;3.33;;;12.20;31.60;;;;;;6285513;28;20509;-62
2021/03/19 11:38:32;;;;;;;3.33;3.03;;;12.20;34.50;;;;;;6276080;28;20488;-62
2021/03/19 11:41:38;;;;;;;3.17;2.87;;;12.20;35.20;;;;;;6275353;28;20862;-62
2021/03/19 11:44:42;;;;;;;3.10;2.80;;;12.20;35.80;;;;;;6266405;28;20527;-63
2021/03/19 11:47:48;;;;;;;3.23;2.80;;;12.50;35.30;;;;;;6300018;28;20544;-63
2021/03/19 11:51:17;;;;;;;3.63;2.83;;;13.90;34.00;;;;;;6299885;28;21077;-59
2021/03/19 11:54:19;;;;;;;3.77;3.47;;;14.70;30.00;;;;;;6299006;28;20477;-59
2021/03/19 11:57:23;;;;;;;3.00;2.70;;;15.10;29.70;;;;;;6300064;28;20470;-60
2021/03/19 12:00:29;;;;;;;3.50;2.73;;;16.20;29.60;;;;;;6299560;28;20622;-60
2021/03/19 12:03:35;;;;;;;2.73;2.53;;;18.30;28.00;;;;;;6299718;28;20492;-60
2021/03/19 12:06:38;;;;;;;2.60;2.40;;;21.50;24.80;;;;;;6299903;28;20477;-59
2021/03/19 12:09:40;;;;;;;3.17;2.87;;;24.40;22.00;;;;;;6299564;28;20231;-59
2021/03/19 12:12:43;;;;;;;2.60;2.40;;;26.40;20.80;;;;;;6299259;28;20231;-59
2021/03/19 12:15:49;;;;;;;2.90;2.70;;;26.90;18.30;;;;;;6299515;28;20317;-59
2021/03/19 12:18:52;;;;;;;2.47;2.20;;;26.90;17.80;;;;;;6299781;28;20357;-59
2021/03/19 12:21:54;;;;;;;2.30;2.10;;;27.10;17.40;;;;;;6299358;28;20241;-63
2021/03/19 12:25:08;;;;;;;2.40;2.20;;;27.40;17.40;;;;;;6299176;28;20234;-63
2021/03/19 12:28:17;;;;;;;4.60;2.57;;;28.60;16.90;;;;;;6298936;28;20608;-63
2021/03/19 12:31:20;;;;;;;2.37;2.17;;;28.80;16.10;;;;;;6299809;28;20315;-62
2021/03/19 12:34:24;;;;;;;2.60;2.40;;;29.10;16.50;;;;;;6288295;28;20369;-62
2021/03/19 12:37:26;;;;;;;3.00;2.70;;;30.20;15.40;;;;;;6274209;28;20229;-60
2021/03/19 12:40:29;;;;;;;2.63;2.43;;;29.40;15.00;;;;;;6273958;28;20318;-61
2021/03/19 12:43:32;;;;;;;3.13;2.83;;;28.80;15.40;;;;;;6298736;28;20250;-60
2021/03/19 12:46:37;;;;;;;3.60;2.43;;;28.60;15.70;;;;;;6289229;28;20242;-60
2021/03/19 12:49:39;;;;;;;3.23;2.47;;;28.30;15.40;;;;;;6299221;28;20245;-61
2021/03/19 12:52:42;;;;;;;2.80;2.60;;;27.80;15.40;;;;;;6298739;28;20702;-60
2021/03/19 12:55:45;;;;;;;2.43;2.23;;;26.90;16.30;;;;;;6299159;28;20571;-61
2021/03/19 12:58:47;;;;;;;3.27;2.57;;;26.90;16.40;;;;;;6298658;28;20241;-60
2021/03/19 13:01:50;;;;;;;2.90;2.70;;;26.70;16.40;;;;;;6299134;28;20231;-63
2021/03/19 13:04:53;;;;;;;3.20;2.90;;;26.20;16.40;;;;;;6298591;28;20226;-62
2021/03/19 13:07:55;;;;;;;2.90;2.50;;;25.70;17.10;;;;;;6298535;28;20237;-62
2021/03/19 13:10:58;;;;;;;4.03;2.97;;;24.40;17.30;;;;;;6298706;28;20218;-62
2021/03/19 13:14:00;;;;;;;3.40;3.10;;;23.50;18.00;;;;;;6298436;28;20237;-61
2021/03/19 13:17:03;;;;;;;2.90;2.70;;;23.80;18.10;;;;;;6298360;28;20687;-62
2021/03/19 13:20:09;;;;;;;2.97;2.70;;;24.50;17.60;;;;;;6298665;28;20237;-60
2021/03/19 13:23:13;;;;;;;2.87;2.53;;;25.20;17.60;;;;;;6298662;28;20254;-61
2021/03/19 13:26:15;;;;;;;4.43;2.90;;;24.30;17.30;;;;;;6298970;28;20227;-60
2021/03/19 13:29:18;;;;;;;3.30;2.90;;;22.10;17.80;;;;;;6298429;28;20245;-61
2021/03/19 13:32:21;;;;;;;3.80;3.30;;;20.10;18.90;;;;;;6298148;28;20299;-59
2021/03/19 13:35:32;;;;;;;3.00;2.60;;;18.50;20.60;;;;;;6279993;28;20232;-59
2021/03/19 13:38:35;;;;;;;3.20;2.83;;;17.50;21.90;;;;;;6273835;28;20342;-59
2021/03/19 13:41:39;;;;;;;2.80;2.60;;;16.10;24.80;;;;;;6273956;28;20502;-59
2021/03/19 13:44:41;;;;;;;4.00;3.10;;;14.80;27.00;;;;;;6281268;28;20913;-59
2021/03/19 13:47:44;;;;;;;3.87;3.13;;;13.70;28.10;;;;;;6302695;28;20536;-59
2021/03/19 13:50:48;;;;;;;3.30;3.00;;;12.20;31.30;;;;;;6297786;28;20476;-58
2021/03/19 13:53:51;;;;;;;3.47;3.07;;;11.60;33.30;;;;;;6302458;28;20473;-59
2021/03/19 13:57:00;;;;;;;3.40;3.10;;;11.00;35.60;;;;;;6302863;28;20473;-59
2021/03/19 14:00:02;;;;;;;2.63;2.43;;;10.60;36.10;;;;;;6302616;28;20465;-59
2021/03/19 14:03:06;;;;;;;5.23;2.40;;;10.50;36.50;;;;;;6302448;28;20568;-60
2021/03/19 14:06:09;;;;;;;3.13;2.83;;;10.50;36.70;;;;;;6302659;28;20481;-58
2021/03/19 14:09:11;;;;;;;3.47;2.40;;;10.40;36.80;;;;;;6302111;28;20931;-59
2021/03/19 14:12:16;;;;;;;3.53;3.23;;;10.30;36.60;;;;;;6301947;28;20492;-59
2021/03/19 14:15:20;;;;;;;2.80;2.50;;;10.10;37.00;;;;;;6302135;28;20989;-58
2021/03/19 14:18:25;;;;;;;4.17;2.60;;;9.90;38.30;;;;;;6301880;28;20465;-58
2021/03/19 14:21:31;;;;;;;3.73;3.43;;;9.60;39.30;;;;;;6301898;28;20465;-59
2021/03/19 14:24:34;;;;;;;3.73;3.50;;;9.20;40.40;;;;;;6301658;28;20488;-59
2021/03/19 14:27:36;;;;;;;3.50;3.20;;;8.90;41.40;;;;;;6302197;28;20469;-59
2021/03/19 14:30:40;;;;;;;3.53;3.30;;;8.90;42.60;;;;;;6302043;28;20478;-59
2021/03/19 14:33:45;;;;;;;3.90;3.50;;;8.70;45.80;;;;;;6296841;28;20512;-59
2021/03/19 14:36:47;;;;;;;4.97;3.77;;;8.60;46.60;;;;;;6276827;28;20820;-61
2021/03/19 14:39:50;;;;;;;6.43;3.20;;;8.40;49.00;;;;;;6277073;28;20824;-64
2021/03/19 14:42:54;;;;;;;7.80;4.47;;;8.40;49.70;;;;;;6276627;28;20489;-64
2021/03/19 14:45:56;;;;;;;3.87;3.57;;;8.10;49.60;;;;;;6292633;28;20477;-64
2021/03/19 14:49:00;;;;;;;5.00;4.17;;;8.00;50.20;;;;;;6298430;28;20959;-64
2021/03/19 14:52:02;;;;;;;3.50;3.20;;;8.10;49.00;;;;;;6299317;28;20477;-63
2021/03/19 14:55:06;;;;;;;3.17;2.87;;;8.30;48.00;;;;;;6298728;28;20466;-63
2021/03/19 14:58:09;;;;;;;3.77;3.47;;;8.60;48.40;;;;;;6294161;28;20860;-62
2021/03/19 15:01:11;;;;;;;5.90;3.83;;;8.70;48.60;;;;;;6298982;28;20572;-63
2021/03/19 15:04:16;;;;;;;4.40;4.00;;;8.90;48.50;;;;;;6298881;28;20575;-63
2021/03/19 15:07:19;;;;;;;4.17;3.87;;;9.00;48.30;;;;;;6299341;28;20552;-59
2021/03/19 15:10:25;;;;;;;3.10;2.90;;;9.20;47.60;;;;;;6285566;28;20779;-59
2021/03/19 15:13:27;;;;;;;4.60;3.17;;;9.10;47.20;;;;;;6273841;28;20934;-59
2021/03/19 15:16:30;;;;;;;3.67;3.33;;;9.20;46.80;;;;;;6273901;28;20974;-60
2021/03/19 15:19:33;;;;;;;3.93;3.63;;;9.30;47.20;;;;;;6274328;28;20442;-61
2021/03/19 15:22:36;;;;;;;3.70;3.40;;;9.30;47.00;;;;;;6273750;28;20470;-60
2021/03/19 15:25:39;;;;;;;2.87;2.67;;;9.40;47.00;;;;;;6273885;28;20462;-60
2021/03/19 15:28:42;;;;;;;5.50;3.10;;;9.40;44.80;;;;;;6273904;28;20458;-60
2021/03/19 15:31:44;;;;;;;3.20;2.87;;;9.40;44.30;;;;;;6273619;28;20588;-60
2021/03/19 15:34:48;;;;;;;4.00;3.70;;;9.40;44.20;;;;;;6284089;28;20476;-60
2021/03/19 15:37:51;;;;;;;3.33;3.03;;;9.50;44.80;;;;;;6273167;28;20834;-60
2021/03/19 15:40:56;;;;;;;5.70;3.93;;;9.40;44.20;;;;;;6273231;28;20467;-60
2021/03/19 15:43:58;;;;;;;4.60;3.50;;;9.50;44.20;;;;;;6273615;28;20466;-60
2021/03/19 15:47:00;;;;;;;3.00;2.70;;;9.50;44.10;;;;;;6297758;28;20482;-60
2021/03/19 15:50:04;;;;;;;3.20;2.87;;;9.50;44.10;;;;;;6297841;28;20573;-60
2021/03/19 15:53:08;;;;;;;3.40;3.20;;;9.60;44.70;;;;;;6297630;28;20495;-60
2021/03/19 15:56:12;;;;;;;3.23;2.97;;;9.50;45.20;;;;;;6297835;28;20556;-61
2021/03/19 15:59:14;;;;;;;3.67;3.33;;;9.60;44.50;;;;;;6288289;28;20483;-59
2021/03/19 16:02:17;;;;;;;3.30;3.00;;;9.60;44.80;;;;;;6299084;28;20507;-60
2021/03/19 16:05:22;;;;;;;3.43;3.13;;;9.60;44.50;;;;;;6299173;28;20480;-59
2021/03/19 16:08:27;;;;;;;3.00;2.80;;;9.60;44.20;;;;;;6297747;28;20963;-60
2021/03/19 16:11:29;;;;;;;4.43;3.77;;;9.50;44.20;;;;;;6299199;28;20488;-61
2021/03/19 16:14:31;;;;;;;3.23;2.93;;;9.50;44.30;;;;;;6299301;28;20472;-60
2021/03/19 16:17:34;;;;;;;7.10;3.70;;;9.40;44.50;;;;;;6299898;28;20568;-59
2021/03/19 16:20:40;;;;;;;4.93;4.00;;;9.30;45.20;;;;;;6299346;28;20469;-59
2021/03/19 16:23:42;;;;;;;4.53;3.03;;;9.10;46.00;;;;;;6298952;28;20530;-60
2021/03/19 16:26:45;;;;;;;3.97;3.57;;;9.00;46.60;;;;;;6299365;28;20465;-61